Prince Frederick, Maryland
Current Conditions -  °F | °C
As of 11:09 AM on Wednesday 26 Nov 2014 (Local Time) from K2W6 Reporting Station
Overcast Overcast  
Wind Chill: 34°   Ceiling: 500
Heat Index: 39°   Visibility: 7mi
Dew Point: 37°   Wind: 8mph
Humidity: 93%   Direction: 360°N
Pressure: 29.99"   Gusts: 18mph
Location:  38.54°N, 76.58°W
Report Text: K2W6 261609Z AUTO 36007G16KT 7SM OVC005 04/03 A2999 RMK AO1
Loading
Personal Weather Stations






























Interactive Weather Map New forecast layout! Learn more

10-Day Weather Forecast

Advertisements
Track Severe Weather on mobile